Claytonville, Illinois
Current Conditions -  °F | °C
As of 9:50 AM on Tuesday 21 Oct 2014 (Local Time) from KTIP Reporting Station
Clear Clear  
Wind Chill: 54°   Ceiling: Unl
Heat Index: 54°   Visibility: 10mi
Dew Point: 44°   Wind: 13mph
Humidity: 70%   Direction: 10°N
Pressure: 30.14"   Gusts: NA
Location:  40.57°N, 87.82°W
Report Text: KTIP 211450Z AUTO 01011KT 10SM CLR 12/07 A3014 RMK AO2 T01210068
Loading
Personal Weather Stations






























Interactive Weather Map
Tropical Storm Tracking
New forecast layout! Learn more

10-Day Weather Forecast

Advertisements
Track Severe Weather on mobile